Overview Statistics Trail Chart Weather Telemetry Raw packets
 

This is the latest recevied weather packets stored in our database for station/object K5IDL. If no packets are shown the sender has not sent any weather packets the latest 10 day(s).

<< 91 92 93 94 95 96 97 >>
Time Temp. Humidity Pressure Rain* Wind** Luminosity Snow
1788030585 38.33° C 36% 1017.6 hPa 0 mm - 82 W/m² -
1788030279 37.78° C 36% 1017.7 hPa 0 mm - 100 W/m² -
1788029975 37.78° C 38% 1017.7 hPa 0 mm - 66 W/m² -
1788029670 36.67° C 39% 1017.6 hPa 0 mm - 105 W/m² -
1788029365 37.22° C 39% 1017.9 hPa 0 mm - 274 W/m² -
1788029064 37.78° C 38% 1018.1 hPa 0 mm - 283 W/m² -
1788028764 37.22° C 39% 1018.1 hPa 0 mm - 271 W/m² -
1788028458 37.78° C 39% 1018.1 hPa 0 mm - 627 W/m² -
1788028154 37.78° C 39% 1018.1 hPa 0 mm - 662 W/m² -
1788027849 37.78° C 40% 1018.4 hPa 0 mm - 654 W/m² -
1788027548 37.78° C 38% 1018.4 hPa 0 mm - 658 W/m² -
1788027243 38.33° C 37% 1018.6 hPa 0 mm - 658 W/m² -
1788026942 37.78° C 39% 1018.5 hPa 0 mm - 659 W/m² -
1788026637 38.33° C 37% 1018.7 hPa 0 mm - 662 W/m² -
1788026332 37.22° C 40% 1018.4 hPa 0 mm - 660 W/m² -
1788026028 37.78° C 40% 1018.7 hPa 0 mm - 656 W/m² -
1788025727 36.67° C 40% 1018.8 hPa 0 mm - 654 W/m² -
1788025426 37.78° C 39% 1018.7 hPa 0 mm - 650 W/m² -
1788025122 37.78° C 39% 1018.6 hPa 0 mm - 649 W/m² -
1788024821 37.78° C 40% 1018.7 hPa 0 mm - 647 W/m² -
1788024518 37.78° C 41% 1018.8 hPa 0 mm - 640 W/m² -
1788024216 37.22° C 40% 1019.1 hPa 0 mm - 636 W/m² -
1788023912 36.67° C 42% 1019.1 hPa 0 mm - 629 W/m² -
1788023608 36.67° C 42% 1019 hPa 0 mm - 625 W/m² -
1788023304 36.67° C 43% 1019 hPa 0 mm - 617 W/m² -

* Rain latest hour (hover to see other rain measurements)
** Current wind speed in m/s (hover to see current wind gust speed)